Time;durP1;ratioP1;P1;durP2;ratioP2;P2;SDS_P1;SDS_P2;PMS_P1;PMS_P2;Temp;Humidity;BMP_temperature;BMP_pressure;BME280_temperature;BME280_humidity;BME280_pressure;Samples;Min_cycle;Max_cycle;Signal;HPM_P1;HPM_P2
2022/07/04 05:02:14;;;;;;;4.25;1.48;;;19.40;88.50;;;;;;5541101;23;20051;-73
2022/07/04 05:04:40;;;;;;;4.65;1.30;;;19.50;88.00;;;;;;4940376;29;20059;-75
2022/07/04 05:07:06;;;;;;;2.53;1.10;;;19.60;87.80;;;;;;4978554;28;20094;-75
2022/07/04 05:09:31;;;;;;;2.65;1.42;;;19.60;87.80;;;;;;4953579;29;20039;-74
2022/07/04 05:11:57;;;;;;;4.28;1.42;;;19.60;87.90;;;;;;4965629;29;20098;-74
2022/07/04 05:14:23;;;;;;;2.45;1.10;;;19.70;87.30;;;;;;4965854;28;20023;-72
2022/07/04 05:16:48;;;;;;;4.18;1.35;;;19.50;87.30;;;;;;4964831;28;20072;-72
2022/07/04 05:19:14;;;;;;;5.32;1.10;;;19.60;87.80;;;;;;4965707;29;20045;-73
2022/07/04 05:21:40;;;;;;;3.92;1.50;;;19.60;87.30;;;;;;4965244;29;20181;-73
2022/07/04 05:24:06;;;;;;;3.13;1.30;;;19.60;87.70;;;;;;4965600;28;20035;-73
2022/07/04 05:26:31;;;;;;;3.20;1.25;;;19.50;87.20;;;;;;4965584;29;20339;-72
2022/07/04 05:28:57;;;;;;;5.43;1.17;;;19.60;87.10;;;;;;4965611;28;20059;-72
2022/07/04 05:31:24;;;;;;;3.50;1.00;;;19.70;87.00;;;;;;4965223;28;20086;-73
2022/07/04 05:33:54;;;;;;;4.38;1.00;;;19.60;86.90;;;;;;4964884;29;20019;-73
2022/07/04 05:36:20;;;;;;;2.75;0.82;;;19.50;87.10;;;;;;4965439;29;20031;-73
2022/07/04 05:38:49;;;;;;;5.25;1.15;;;19.60;87.60;;;;;;4963747;29;20026;-72
2022/07/04 05:41:15;;;;;;;4.28;1.20;;;19.60;87.10;;;;;;4964139;29;20039;-72
2022/07/04 05:43:41;;;;;;;3.90;1.45;;;19.70;86.80;;;;;;4964970;28;20030;-73
2022/07/04 05:46:07;;;;;;;3.88;1.13;;;19.80;86.50;;;;;;4964910;28;20047;-74
2022/07/04 05:48:33;;;;;;;4.88;1.55;;;19.90;86.20;;;;;;4965462;29;20031;-74
2022/07/04 05:50:59;;;;;;;3.72;1.48;;;20.10;86.20;;;;;;4963137;29;20347;-73
2022/07/04 05:53:24;;;;;;;4.55;1.20;;;20.20;85.90;;;;;;4964974;29;20035;-73
2022/07/04 05:55:50;;;;;;;4.55;1.20;;;20.50;84.40;;;;;;4964957;29;20083;-72
2022/07/04 05:58:16;;;;;;;2.75;1.00;;;20.60;83.70;;;;;;4964905;28;20049;-75
2022/07/04 06:00:42;;;;;;;4.53;1.30;;;20.70;83.20;;;;;;4957189;28;20107;-74
2022/07/04 06:03:08;;;;;;;4.15;1.33;;;20.80;83.40;;;;;;4953561;28;20070;-73
2022/07/04 06:05:34;;;;;;;3.97;1.20;;;21.00;82.10;;;;;;4962023;29;20027;-74
2022/07/04 06:08:00;;;;;;;3.72;1.23;;;21.10;82.20;;;;;;4963374;28;20046;-74
2022/07/04 06:10:26;;;;;;;3.78;1.00;;;21.20;82.10;;;;;;4957649;28;20150;-74
2022/07/04 06:12:52;;;;;;;3.50;1.00;;;21.30;81.60;;;;;;4962077;28;20268;-74
2022/07/04 06:15:18;;;;;;;5.53;1.15;;;21.40;81.40;;;;;;4963311;28;20046;-73
2022/07/04 06:17:44;;;;;;;4.45;1.27;;;21.30;82.00;;;;;;4962973;28;20023;-73
2022/07/04 06:20:10;;;;;;;3.45;1.40;;;21.40;81.60;;;;;;4946493;29;20216;-73
2022/07/04 06:22:44;;;;;;;5.25;1.27;;;21.60;80.70;;;;;;4963726;29;20039;-73
2022/07/04 06:25:17;;;;;;;3.53;1.02;;;21.50;80.30;;;;;;4962685;29;20325;-74
2022/07/04 06:27:45;;;;;;;2.15;0.90;;;21.60;80.50;;;;;;4962623;29;20206;-72
2022/07/04 06:30:12;;;;;;;2.30;1.15;;;21.50;80.80;;;;;;4963061;28;20038;-72
2022/07/04 06:32:46;;;;;;;3.35;1.05;;;21.50;80.90;;;;;;4962446;29;20087;-73
2022/07/04 06:37:58;;;;;;;3.67;0.90;;;21.80;80.70;;;;;;4943963;29;20066;-73
2022/07/04 06:40:24;;;;;;;6.95;1.30;;;21.90;79.60;;;;;;4944311;29;20039;-73
2022/07/04 06:42:50;;;;;;;3.72;1.20;;;22.00;79.60;;;;;;4943971;29;20051;-72
2022/07/04 06:45:17;;;;;;;1.98;1.05;;;22.20;78.60;;;;;;4943369;29;20251;-74
2022/07/04 06:47:44;;;;;;;5.10;1.20;;;22.30;78.50;;;;;;4943568;29;20036;-73
2022/07/04 06:50:10;;;;;;;3.90;1.08;;;22.50;78.10;;;;;;4944206;29;20095;-72
2022/07/04 06:52:39;;;;;;;5.38;1.00;;;22.70;77.80;;;;;;4944109;29;20161;-72
2022/07/04 06:55:06;;;;;;;3.72;1.00;;;22.80;77.20;;;;;;4944038;29;20028;-73
2022/07/04 06:57:32;;;;;;;7.15;1.23;;;22.90;76.30;;;;;;4952926;29;20205;-74
2022/07/04 06:59:58;;;;;;;4.13;1.10;;;23.00;76.70;;;;;;4963516;29;20155;-74
2022/07/04 07:02:24;;;;;;;5.57;1.30;;;23.20;75.80;;;;;;4965436;28;20059;-73
2022/07/04 07:04:50;;;;;;;2.25;1.10;;;23.30;75.80;;;;;;4980102;28;20073;-75
2022/07/04 07:07:15;;;;;;;2.00;1.00;;;23.40;75.90;;;;;;4986558;28;20031;-74
2022/07/04 07:09:41;;;;;;;2.10;1.13;;;23.40;75.20;;;;;;4969867;28;20042;-74
2022/07/04 07:12:07;;;;;;;5.32;1.33;;;23.50;75.40;;;;;;4958415;29;20026;-71
2022/07/04 07:14:33;;;;;;;4.65;1.15;;;23.70;75.60;;;;;;4944585;29;20051;-73
2022/07/04 07:16:59;;;;;;;5.00;1.42;;;23.60;75.30;;;;;;4942722;28;20051;-73
2022/07/04 07:19:25;;;;;;;4.75;1.25;;;23.70;75.40;;;;;;4942502;29;20035;-74
2022/07/04 07:21:51;;;;;;;2.70;1.33;;;23.90;74.90;;;;;;4942803;29;20301;-74
2022/07/04 07:24:16;;;;;;;4.30;1.15;;;24.00;74.20;;;;;;4943303;29;20054;-73
2022/07/04 07:26:42;;;;;;;2.83;1.00;;;24.10;74.30;;;;;;4946968;29;20023;-75
2022/07/04 07:29:08;;;;;;;4.55;1.10;;;24.30;73.70;;;;;;4962643;29;20034;-73
2022/07/04 07:31:34;;;;;;;2.95;1.10;;;24.40;73.60;;;;;;4946152;29;20070;-73
2022/07/04 07:33:59;;;;;;;5.65;1.30;;;24.30;72.70;;;;;;4946051;29;20108;-73
2022/07/04 07:36:25;;;;;;;3.25;1.10;;;24.20;73.20;;;;;;4947849;29;20054;-77
2022/07/04 07:38:52;;;;;;;4.15;1.13;;;24.40;73.80;;;;;;4945709;29;20135;-75
2022/07/04 07:41:18;;;;;;;6.88;1.40;;;24.60;73.50;;;;;;4947500;29;20032;-76
2022/07/04 07:43:44;;;;;;;4.03;1.02;;;24.60;73.10;;;;;;4947425;29;20090;-77
2022/07/04 07:46:09;;;;;;;4.45;1.25;;;24.60;73.30;;;;;;4946885;28;20051;-76
2022/07/04 07:48:38;;;;;;;2.92;1.20;;;24.50;73.20;;;;;;4947363;29;20023;-74
2022/07/04 07:51:04;;;;;;;4.50;1.30;;;24.60;72.90;;;;;;4946612;29;20032;-73
2022/07/04 07:53:30;;;;;;;4.65;1.52;;;24.50;72.80;;;;;;4946192;29;20103;-74
2022/07/04 07:55:55;;;;;;;5.60;1.40;;;24.70;72.90;;;;;;4945385;29;20042;-74
2022/07/04 07:58:21;;;;;;;2.25;1.10;;;24.70;73.00;;;;;;4962448;29;20035;-73
2022/07/04 08:00:47;;;;;;;3.42;0.77;;;24.60;73.30;;;;;;4965010;28;20222;-72
2022/07/04 08:05:57;;;;;;;4.45;1.15;;;24.70;73.20;;;;;;4965471;28;20039;-72
2022/07/04 08:08:23;;;;;;;2.83;1.10;;;24.90;72.80;;;;;;4965694;29;20026;-73
2022/07/04 08:10:50;;;;;;;4.40;1.00;;;24.90;72.40;;;;;;4965361;28;20027;-73
2022/07/04 08:13:16;;;;;;;2.65;1.45;;;24.90;72.20;;;;;;4966258;29;20027;-73
2022/07/04 08:15:42;;;;;;;4.60;0.98;;;24.90;72.70;;;;;;4965533;28;20201;-72
2022/07/04 08:18:07;;;;;;;4.40;1.20;;;24.90;72.30;;;;;;4965486;28;20042;-72
2022/07/04 08:20:36;;;;;;;2.85;0.95;;;24.90;72.70;;;;;;4965722;29;20137;-73
2022/07/04 08:23:02;;;;;;;5.15;1.25;;;24.90;72.20;;;;;;4965369;28;20035;-74
2022/07/04 08:25:28;;;;;;;3.72;1.40;;;24.80;72.70;;;;;;4964599;29;20031;-73
2022/07/04 08:27:54;;;;;;;2.60;1.13;;;24.80;72.80;;;;;;4965356;28;20070;-73
2022/07/04 08:30:20;;;;;;;3.63;1.40;;;25.00;72.60;;;;;;4965048;28;20363;-72
2022/07/04 08:32:52;;;;;;;5.57;1.20;;;24.90;72.20;;;;;;4965414;28;20062;-75
2022/07/04 08:35:17;;;;;;;2.03;1.10;;;25.00;72.00;;;;;;4965170;28;20297;-72
2022/07/04 08:37:43;;;;;;;3.80;1.40;;;25.20;71.60;;;;;;4965700;28;20030;-73
2022/07/04 08:40:10;;;;;;;3.42;1.10;;;25.10;71.50;;;;;;4965335;28;20102;-73
2022/07/04 08:42:38;;;;;;;4.65;1.17;;;25.10;72.00;;;;;;4964229;29;20046;-73
2022/07/04 08:45:05;;;;;;;3.75;1.17;;;25.10;72.10;;;;;;4964796;28;20031;-75
2022/07/04 08:47:34;;;;;;;3.47;1.27;;;25.40;71.70;;;;;;4963999;29;20039;-75
2022/07/04 08:50:16;;;;;;;5.32;1.30;;;25.50;71.50;;;;;;4965287;28;20030;-74
2022/07/04 08:52:55;;;;;;;4.25;1.33;;;25.60;71.50;;;;;;4964235;29;20367;-73
2022/07/04 08:58:25;;;;;;;4.82;1.52;;;25.60;71.30;;;;;;4964964;28;20309;-74
2022/07/04 09:01:16;;;;;;;5.18;1.65;;;25.70;70.70;;;;;;4964498;28;20058;-74
2022/07/04 09:03:43;;;;;;;5.13;1.30;;;25.80;70.10;;;;;;4963947;29;20051;-74
2022/07/04 09:06:10;;;;;;;5.53;1.40;;;25.70;70.30;;;;;;4964952;28;20054;-74
2022/07/04 09:08:37;;;;;;;4.55;1.35;;;25.90;69.80;;;;;;4965240;28;20083;-73
2022/07/04 09:11:09;;;;;;;6.28;1.40;;;25.80;70.00;;;;;;4964951;29;20054;-73
2022/07/04 09:13:34;;;;;;;4.70;1.17;;;25.80;70.90;;;;;;4965229;29;20050;-73
2022/07/04 09:16:01;;;;;;;6.82;1.42;;;26.20;70.60;;;;;;4963738;28;20227;-74
2022/07/04 09:18:33;;;;;;;2.20;0.95;;;26.40;68.90;;;;;;4965245;29;20225;-74
2022/07/04 09:21:05;;;;;;;6.88;1.60;;;26.10;68.90;;;;;;4964080;28;20034;-74
2022/07/04 09:23:42;;;;;;;3.58;1.20;;;26.10;69.30;;;;;;4963342;29;20039;-73
2022/07/04 09:26:13;;;;;;;3.53;1.45;;;25.70;69.10;;;;;;4979198;28;20165;-72
2022/07/04 09:28:50;;;;;;;3.42;1.23;;;25.70;69.00;;;;;;4964673;29;20071;-73
2022/07/04 09:31:21;;;;;;;5.38;1.63;;;25.60;69.50;;;;;;4963661;28;20039;-73
2022/07/04 09:33:54;;;;;;;4.78;1.40;;;25.70;68.40;;;;;;4964160;29;20102;-74
2022/07/04 09:36:22;;;;;;;5.53;1.73;;;25.70;69.10;;;;;;4964054;29;20093;-75
2022/07/04 09:39:04;;;;;;;;;;;25.80;69.30;;;;;;4964047;28;20042;-75
2022/07/04 09:41:34;;;;;;;5.90;1.67;;;25.90;69.50;;;;;;4963653;29;19973;-73
2022/07/04 09:44:00;;;;;;;3.85;1.20;;;26.00;68.40;;;;;;4964781;28;20062;-73
2022/07/04 09:46:26;;;;;;;6.00;1.35;;;25.90;68.80;;;;;;4964383;28;20101;-73
2022/07/04 09:48:52;;;;;;;3.65;1.35;;;26.00;69.00;;;;;;4964495;28;20053;-73
2022/07/04 09:51:47;;;;;;;4.90;1.23;;;26.40;68.40;;;;;;4964243;28;20139;-73
2022/07/04 09:54:22;;;;;;;7.25;1.55;;;26.60;68.40;;;;;;4964279;28;20047;-74
2022/07/04 09:56:55;;;;;;;3.90;1.20;;;26.70;67.80;;;;;;4963296;28;20035;-75
2022/07/04 09:59:22;;;;;;;5.47;1.60;;;26.80;67.20;;;;;;4963997;29;20313;-73
2022/07/04 10:01:49;;;;;;;5.57;1.50;;;26.90;67.30;;;;;;4962367;28;20051;-75
2022/07/04 10:04:14;;;;;;;3.67;1.08;;;26.90;67.70;;;;;;4963217;29;20035;-74
2022/07/04 10:06:42;;;;;;;4.72;1.30;;;26.80;67.30;;;;;;4962913;28;20034;-74
2022/07/04 10:09:13;;;;;;;2.45;1.05;;;26.80;67.60;;;;;;4953018;29;20330;-73
2022/07/04 10:11:40;;;;;;;5.00;1.30;;;26.70;67.30;;;;;;4963659;28;20301;-73
2022/07/04 10:14:08;;;;;;;4.45;1.38;;;26.50;67.70;;;;;;4962551;28;20031;-73
2022/07/04 10:16:34;;;;;;;3.08;1.33;;;26.40;67.50;;;;;;4962712;28;20043;-73
2022/07/04 10:19:00;;;;;;;2.58;0.80;;;26.40;67.30;;;;;;4962369;29;20035;-73
2022/07/04 10:21:26;;;;;;;3.13;1.50;;;26.30;67.70;;;;;;4962826;28;20356;-73
2022/07/04 10:23:52;;;;;;;3.63;1.20;;;26.40;67.60;;;;;;4962447;28;20019;-73
2022/07/04 10:26:19;;;;;;;2.33;1.10;;;26.60;67.50;;;;;;4963062;28;20094;-73
2022/07/04 10:28:47;;;;;;;3.45;1.05;;;26.70;67.10;;;;;;4962720;28;20130;-74
2022/07/04 10:31:15;;;;;;;4.70;1.30;;;26.80;67.20;;;;;;4961502;28;20039;-73
2022/07/04 10:33:41;;;;;;;5.85;1.60;;;26.80;66.40;;;;;;4958956;28;20023;-74
2022/07/04 10:36:16;;;;;;;4.35;1.30;;;26.90;66.80;;;;;;4962363;28;20102;-73
2022/07/04 10:39:02;;;;;;;4.22;1.40;;;26.90;66.50;;;;;;4963002;28;20051;-73
2022/07/04 10:41:30;;;;;;;4.50;1.42;;;27.20;66.70;;;;;;4962914;28;20062;-73
2022/07/04 10:44:09;;;;;;;3.60;1.40;;;27.10;66.00;;;;;;4962378;28;20066;-73
2022/07/04 10:46:37;;;;;;;4.30;1.40;;;27.00;65.50;;;;;;4962249;28;20363;-73
2022/07/04 10:49:17;;;;;;;5.65;1.25;;;26.90;65.10;;;;;;4958276;28;20039;-73
2022/07/04 10:51:48;;;;;;;3.08;1.05;;;27.10;65.60;;;;;;4962884;28;20106;-73
2022/07/04 10:54:38;;;;;;;2.65;1.30;;;27.30;64.90;;;;;;4962706;28;20324;-73
2022/07/04 10:57:15;;;;;;;3.55;1.40;;;27.50;65.80;;;;;;4962438;29;20028;-75
2022/07/04 11:00:04;;;;;;;5.43;1.75;;;27.60;66.40;;;;;;4963404;28;20043;-74
2022/07/04 11:02:32;;;;;;;3.13;1.20;;;27.60;66.00;;;;;;4966325;28;20054;-74
2022/07/04 11:05:06;;;;;;;3.95;1.17;;;27.70;64.60;;;;;;4960893;28;20309;-76
2022/07/04 11:07:37;;;;;;;4.75;1.45;;;27.40;65.60;;;;;;4966989;28;20035;-74
2022/07/04 11:10:12;;;;;;;11.98;1.77;;;27.60;65.40;;;;;;4965918;28;20302;-77
2022/07/04 11:12:54;;;;;;;7.85;2.05;;;27.70;65.10;;;;;;4966998;29;20372;-74
2022/07/04 11:15:41;;;;;;;5.00;1.38;;;27.80;65.20;;;;;;4965944;28;20027;-76
2022/07/04 11:18:14;;;;;;;4.10;1.20;;;28.00;65.10;;;;;;4946119;29;20044;-76
2022/07/04 11:20:48;;;;;;;2.80;0.90;;;28.20;64.10;;;;;;4950534;28;20050;-75
2022/07/04 11:23:16;;;;;;;4.53;1.10;;;28.40;63.40;;;;;;4946822;29;20310;-75
2022/07/04 11:25:45;;;;;;;3.03;1.30;;;28.80;62.90;;;;;;4947155;29;20051;-76
2022/07/04 11:28:34;;;;;;;4.55;1.10;;;29.00;62.10;;;;;;4946827;29;20043;-76
2022/07/04 11:31:00;;;;;;;3.35;1.25;;;29.30;61.70;;;;;;4945860;28;20079;-76
2022/07/04 11:33:31;;;;;;;5.38;1.10;;;29.50;61.60;;;;;;4946929;29;20024;-76
2022/07/04 11:36:05;;;;;;;6.50;1.60;;;29.30;61.10;;;;;;4957495;29;20038;-75
2022/07/04 11:38:55;;;;;;;3.17;1.23;;;29.50;61.50;;;;;;4966223;29;20023;-76
2022/07/04 11:45:02;;;;;;;4.25;1.52;;;30.40;61.10;;;;;;4966076;28;20041;-77
2022/07/04 11:47:39;;;;;;;5.20;1.20;;;31.00;58.90;;;;;;4964129;28;20039;-73
2022/07/04 11:50:11;;;;;;;3.35;1.10;;;31.70;58.30;;;;;;4964893;29;20031;-75
2022/07/04 11:52:53;;;;;;;1.77;0.90;;;32.10;58.60;;;;;;4961821;28;20027;-77
2022/07/04 11:55:21;;;;;;;1.83;1.08;;;32.70;56.30;;;;;;4964334;28;20075;-76
2022/07/04 11:57:57;;;;;;;3.20;1.00;;;33.60;55.70;;;;;;4965802;28;20049;-77
2022/07/04 12:00:34;;;;;;;3.67;0.90;;;34.60;54.50;;;;;;4978846;28;20053;-78
2022/07/04 12:03:01;;;;;;;4.93;2.95;;;35.30;53.50;;;;;;4964970;29;20071;-78
2022/07/04 12:05:27;;;;;;;8.23;4.80;;;35.90;52.80;;;;;;4965427;28;20309;-78
2022/07/04 12:07:52;;;;;;;4.53;2.10;;;36.20;52.40;;;;;;4964457;29;20046;-74
2022/07/04 12:10:23;;;;;;;4.53;1.20;;;36.70;51.40;;;;;;4965835;28;20360;-74
2022/07/04 12:13:09;;;;;;;2.38;0.90;;;36.80;51.00;;;;;;4965780;28;20050;-77
2022/07/04 12:15:52;;;;;;;3.83;1.63;;;37.30;50.60;;;;;;4965328;28;20102;-77
2022/07/04 12:18:22;;;;;;;9.15;5.60;;;38.20;49.80;;;;;;4966019;28;20046;-79
2022/07/04 12:20:50;;;;;;;5.03;3.10;;;38.90;48.90;;;;;;4965645;28;20038;-75
2022/07/04 12:23:18;;;;;;;5.00;2.03;;;38.20;48.60;;;;;;4964625;29;20047;-76
2022/07/04 12:25:46;;;;;;;3.10;1.42;;;38.30;48.50;;;;;;4961469;28;20054;-75
2022/07/04 12:28:14;;;;;;;3.00;0.93;;;37.60;49.20;;;;;;4950534;29;20023;-74
2022/07/04 12:30:59;;;;;;;2.95;2.00;;;37.70;49.30;;;;;;4963527;28;20055;-75
2022/07/04 12:33:29;;;;;;;3.58;1.60;;;39.10;48.90;;;;;;4961551;29;20031;-76
2022/07/04 12:35:58;;;;;;;3.00;1.20;;;39.40;47.80;;;;;;4949005;29;20059;-76
2022/07/04 12:38:27;;;;;;;4.50;1.20;;;38.80;48.10;;;;;;4961992;29;20046;-76
2022/07/04 12:40:55;;;;;;;3.65;1.10;;;39.50;47.50;;;;;;4968242;29;20034;-76
2022/07/04 12:43:41;;;;;;;3.60;1.13;;;40.30;47.50;;;;;;4964978;28;20031;-75
2022/07/04 12:46:26;;;;;;;2.08;0.60;;;41.00;46.60;;;;;;4964413;28;20046;-77
2022/07/04 12:48:53;;;;;;;3.13;1.00;;;41.80;45.50;;;;;;4963781;29;20296;-77
2022/07/04 12:51:25;;;;;;;2.15;0.70;;;42.10;45.40;;;;;;4965155;29;20118;-75
2022/07/04 12:53:54;;;;;;;4.85;0.73;;;41.80;45.00;;;;;;4964269;29;20035;-78
2022/07/04 12:56:43;;;;;;;2.10;0.57;;;42.30;45.00;;;;;;4964769;28;20031;-76
2022/07/04 12:59:13;;;;;;;2.25;0.50;;;42.90;44.60;;;;;;4964271;29;20035;-75
2022/07/04 13:01:41;;;;;;;4.10;0.80;;;43.40;44.70;;;;;;4951106;28;20265;-75
2022/07/04 13:04:10;;;;;;;3.90;0.75;;;44.10;43.50;;;;;;4945121;29;20210;-76
2022/07/04 13:06:36;;;;;;;2.78;0.70;;;44.10;44.00;;;;;;4944354;29;20042;-76
2022/07/04 13:09:04;;;;;;;2.33;0.60;;;43.50;43.30;;;;;;4951171;29;20098;-77
2022/07/04 13:14:14;;;;;;;1.27;0.50;;;44.70;42.90;;;;;;4944438;29;20028;-77
2022/07/04 13:16:40;;;;;;;1.88;0.60;;;45.50;42.70;;;;;;4959482;28;20091;-76
2022/07/04 13:19:05;;;;;;;2.30;0.50;;;45.50;42.70;;;;;;4944541;29;20035;-76
2022/07/04 13:21:32;;;;;;;2.63;0.50;;;46.00;42.30;;;;;;4959198;29;20032;-75
2022/07/04 13:23:57;;;;;;;2.42;0.55;;;45.80;42.00;;;;;;4944696;29;20024;-75
2022/07/04 13:26:28;;;;;;;3.22;0.60;;;45.50;42.10;;;;;;4959161;29;20063;-76
2022/07/04 13:28:53;;;;;;;4.07;1.13;;;45.70;41.70;;;;;;4963905;28;20051;-76
2022/07/04 13:31:19;;;;;;;3.13;0.80;;;46.40;42.20;;;;;;4962920;28;20042;-76
2022/07/04 13:33:45;;;;;;;3.35;0.77;;;45.80;41.80;;;;;;4979210;28;20019;-76
2022/07/04 13:36:10;;;;;;;7.18;0.75;;;44.80;42.00;;;;;;4963754;28;20027;-74
2022/07/04 13:38:36;;;;;;;1.85;0.50;;;45.90;41.80;;;;;;4979157;28;20093;-75
2022/07/04 13:41:02;;;;;;;3.33;0.68;;;46.20;41.80;;;;;;4959178;28;20055;-76
2022/07/04 13:43:28;;;;;;;2.10;0.50;;;46.40;41.00;;;;;;4963820;28;20221;-76
2022/07/04 13:45:57;;;;;;;3.78;0.65;;;44.80;41.20;;;;;;4963440;28;20035;-77
2022/07/04 13:48:48;;;;;;;7.32;1.02;;;42.80;43.20;;;;;;4964037;28;20029;-74
2022/07/04 13:51:14;;;;;;;4.88;0.80;;;40.20;44.70;;;;;;4963069;28;20071;-75
2022/07/04 13:53:40;;;;;;;2.22;0.80;;;39.10;46.40;;;;;;4962516;29;20027;-76
2022/07/04 13:56:18;;;;;;;1.92;0.40;;;40.50;45.60;;;;;;4959061;29;20083;-75
2022/07/04 13:58:49;;;;;;;2.53;0.60;;;41.20;44.40;;;;;;4963250;28;20220;-75
2022/07/04 14:01:18;;;;;;;1.92;0.65;;;40.30;45.50;;;;;;4961720;28;20043;-74
2022/07/04 14:03:50;;;;;;;4.20;0.73;;;41.10;44.50;;;;;;4963986;29;20079;-76
2022/07/04 14:06:17;;;;;;;2.15;0.47;;;42.90;44.60;;;;;;4962725;28;20059;-75
2022/07/04 14:08:42;;;;;;;1.90;0.60;;;44.50;42.50;;;;;;4956539;29;20031;-76
2022/07/04 14:11:10;;;;;;;1.98;0.50;;;44.70;42.50;;;;;;4958500;29;20024;-77
2022/07/04 14:13:39;;;;;;;2.28;0.52;;;45.90;41.60;;;;;;4958729;29;20027;-75
2022/07/04 14:16:11;;;;;;;3.33;0.75;;;47.90;41.20;;;;;;4962445;28;20310;-80
2022/07/04 14:18:37;;;;;;;1.60;0.50;;;48.40;40.80;;;;;;4959137;28;20077;-78
2022/07/04 14:21:03;;;;;;;1.98;0.60;;;48.50;40.10;;;;;;4962916;29;20315;-79
2022/07/04 14:23:40;;;;;;;3.38;0.75;;;47.30;40.60;;;;;;4978103;28;20049;-75
2022/07/04 14:26:07;;;;;;;3.58;0.80;;;46.30;41.10;;;;;;4962992;28;20042;-75
2022/07/04 14:28:33;;;;;;;3.60;0.50;;;47.60;40.50;;;;;;4963107;28;20128;-77
2022/07/04 14:30:59;;;;;;;1.88;0.68;;;49.00;40.10;;;;;;4960119;28;20039;-76
2022/07/04 14:33:25;;;;;;;3.83;0.60;;;47.30;39.80;;;;;;4952728;28;20309;-76
2022/07/04 14:35:51;;;;;;;2.45;0.70;;;45.50;41.00;;;;;;4954117;29;20452;-76
2022/07/04 14:38:18;;;;;;;1.47;0.50;;;43.60;42.40;;;;;;4977275;28;20058;-76
2022/07/04 14:40:46;;;;;;;0.98;0.50;;;41.30;44.20;;;;;;4962848;28;20083;-74
2022/07/04 14:43:13;;;;;;;4.05;1.05;;;39.60;45.50;;;;;;4962203;29;20046;-76
2022/07/04 14:45:39;;;;;;;2.67;0.70;;;41.00;45.10;;;;;;4963392;28;20118;-75
2022/07/04 14:48:05;;;;;;;3.10;0.70;;;42.10;44.10;;;;;;4962137;29;20098;-75
2022/07/04 14:50:31;;;;;;;2.33;0.60;;;43.70;42.80;;;;;;4964095;29;20027;-74
2022/07/04 14:52:57;;;;;;;2.75;0.50;;;44.10;42.70;;;;;;4963887;29;20143;-76
2022/07/04 14:55:22;;;;;;;2.83;0.60;;;45.00;42.20;;;;;;4963505;29;20070;-76
2022/07/04 14:57:48;;;;;;;4.82;0.75;;;45.40;41.90;;;;;;4963775;28;20309;-75
2022/07/04 15:00:14;;;;;;;1.75;0.50;;;45.80;42.10;;;;;;4959653;28;20031;-76
2022/07/04 15:02:40;;;;;;;4.85;0.70;;;46.10;41.30;;;;;;4944300;29;20051;-73
2022/07/04 15:05:07;;;;;;;1.45;0.60;;;45.90;41.00;;;;;;4944447;29;20091;-76
2022/07/04 15:07:34;;;;;;;3.40;0.77;;;46.00;40.70;;;;;;4945072;29;20039;-76
2022/07/04 15:10:00;;;;;;;2.13;0.60;;;45.90;41.20;;;;;;4954761;29;20035;-73
2022/07/04 15:12:26;;;;;;;3.25;0.60;;;45.70;41.30;;;;;;4949439;29;20079;-75
2022/07/04 15:14:55;;;;;;;2.97;0.73;;;45.50;41.70;;;;;;4947526;29;20031;-76
2022/07/04 15:17:20;;;;;;;4.75;0.60;;;44.90;41.90;;;;;;4944824;28;20039;-74
2022/07/04 15:25:25;;;;;;;3.45;0.73;;;45.00;42.10;;;;;;4963176;29;20364;-75
2022/07/04 15:27:51;;;;;;;2.10;0.85;;;46.00;41.30;;;;;;4964053;29;20119;-73
2022/07/04 15:30:22;;;;;;;2.20;0.77;;;45.50;40.90;;;;;;4961594;28;20051;-75
2022/07/04 15:32:47;;;;;;;2.85;0.80;;;43.90;41.60;;;;;;4963728;29;20079;-77
2022/07/04 15:35:13;;;;;;;3.38;1.08;;;42.80;42.50;;;;;;4963400;28;20257;-73
2022/07/04 15:37:39;;;;;;;2.28;0.80;;;41.30;43.80;;;;;;4964073;28;20343;-77
2022/07/04 15:40:05;;;;;;;3.35;0.82;;;39.60;45.30;;;;;;4964577;28;20023;-76
2022/07/04 15:42:31;;;;;;;2.42;0.88;;;37.90;46.90;;;;;;4964743;28;20035;-75
2022/07/04 15:44:57;;;;;;;4.78;1.15;;;36.60;48.70;;;;;;4964485;28;20257;-75
2022/07/04 15:47:23;;;;;;;2.60;1.00;;;35.40;49.70;;;;;;4966433;28;20289;-77
2022/07/04 15:49:48;;;;;;;4.00;1.10;;;35.20;50.30;;;;;;4967297;29;20039;-76
2022/07/04 15:52:15;;;;;;;6.05;0.95;;;34.90;50.70;;;;;;4966690;28;20027;-76
2022/07/04 15:54:42;;;;;;;3.47;1.20;;;35.90;50.00;;;;;;4967417;28;20023;-76
2022/07/04 15:57:10;;;;;;;3.28;0.88;;;36.40;48.90;;;;;;4966984;28;20122;-77
2022/07/04 15:59:36;;;;;;;3.28;0.95;;;37.80;47.60;;;;;;4967482;28;20019;-76
2022/07/04 16:02:03;;;;;;;3.88;0.80;;;39.50;46.20;;;;;;4965962;28;20243;-76
2022/07/04 16:04:28;;;;;;;5.57;0.93;;;39.90;45.50;;;;;;4965275;29;20217;-75
2022/07/04 16:06:54;;;;;;;2.35;0.80;;;39.10;45.90;;;;;;4966735;29;20031;-75
2022/07/04 16:09:20;;;;;;;2.65;0.77;;;38.70;46.10;;;;;;4966181;28;20043;-75
2022/07/04 16:11:50;;;;;;;1.80;0.75;;;38.20;46.80;;;;;;4967046;28;20030;-76
2022/07/04 16:14:17;;;;;;;4.53;0.98;;;37.50;47.30;;;;;;4966740;28;20364;-75
2022/07/04 16:16:42;;;;;;;4.32;0.90;;;36.30;47.60;;;;;;4966860;28;20039;-75
2022/07/04 16:19:08;;;;;;;3.40;0.73;;;35.20;48.90;;;;;;4966266;29;20078;-77
2022/07/04 16:21:34;;;;;;;3.45;0.90;;;34.50;49.20;;;;;;4967271;28;20035;-76
2022/07/04 16:23:59;;;;;;;3.33;0.90;;;34.20;50.00;;;;;;4966972;28;20106;-76
2022/07/04 16:26:25;;;;;;;2.40;0.80;;;33.90;49.40;;;;;;4965686;29;20093;-77
2022/07/04 16:28:51;;;;;;;2.35;0.80;;;34.60;49.40;;;;;;4967240;28;20039;-77
2022/07/04 16:31:19;;;;;;;3.08;0.70;;;35.90;48.00;;;;;;4965541;28;20066;-76
2022/07/04 16:33:46;;;;;;;2.28;0.73;;;37.50;46.20;;;;;;4967197;28;20087;-78
2022/07/04 16:36:12;;;;;;;2.80;0.90;;;38.50;45.30;;;;;;4966244;28;20026;-78
2022/07/04 16:38:38;;;;;;;1.10;0.50;;;39.40;44.40;;;;;;4965541;29;20256;-75
2022/07/04 16:41:04;;;;;;;2.70;0.60;;;40.10;43.70;;;;;;4966726;28;20035;-76
2022/07/04 16:43:30;;;;;;;2.78;0.65;;;40.40;43.30;;;;;;4966237;28;20038;-76
2022/07/04 16:45:56;;;;;;;2.20;0.63;;;40.50;43.10;;;;;;4965943;28;20062;-77
2022/07/04 16:48:22;;;;;;;1.73;0.55;;;40.70;42.20;;;;;;4965681;28;20035;-75
2022/07/04 16:50:48;;;;;;;3.47;0.80;;;40.50;42.30;;;;;;4966502;28;20039;-76
2022/07/04 16:53:14;;;;;;;1.88;0.60;;;40.30;42.20;;;;;;4965661;28;20035;-75
2022/07/04 16:55:39;;;;;;;2.63;0.45;;;39.90;42.30;;;;;;4965288;29;20039;-76
2022/07/04 16:58:06;;;;;;;2.47;0.65;;;39.90;42.80;;;;;;4963768;28;20035;-76
2022/07/04 17:00:31;;;;;;;2.95;0.50;;;40.10;42.00;;;;;;4964463;28;20046;-75
2022/07/04 17:02:57;;;;;;;5.75;1.08;;;40.20;41.90;;;;;;4965351;29;20051;-75
2022/07/04 17:05:23;;;;;;;1.80;0.50;;;40.10;41.90;;;;;;4964518;29;20046;-75
2022/07/04 17:07:49;;;;;;;1.35;0.50;;;40.10;42.00;;;;;;4964684;29;20147;-77
2022/07/04 17:10:15;;;;;;;4.35;0.55;;;40.40;41.50;;;;;;4965174;28;20035;-75
2022/07/04 17:12:41;;;;;;;1.70;0.50;;;40.50;41.70;;;;;;4966220;28;20030;-77
2022/07/04 17:15:07;;;;;;;3.28;0.60;;;40.30;41.40;;;;;;4964110;28;20034;-78
2022/07/04 17:17:33;;;;;;;2.15;0.35;;;40.90;41.40;;;;;;4966314;28;20031;-75
2022/07/04 17:19:59;;;;;;;1.17;0.55;;;41.70;40.70;;;;;;4966320;28;20039;-76
2022/07/04 17:22:26;;;;;;;2.00;0.60;;;41.90;40.00;;;;;;4965544;29;20285;-77
2022/07/04 17:24:52;;;;;;;1.95;0.40;;;41.30;39.80;;;;;;4965843;28;20042;-77
2022/07/04 17:27:17;;;;;;;1.70;0.47;;;39.70;40.70;;;;;;4964491;29;20090;-77
2022/07/04 17:29:43;;;;;;;2.08;0.50;;;38.20;41.90;;;;;;4964598;29;20273;-74
2022/07/04 17:32:09;;;;;;;1.73;0.50;;;36.50;43.20;;;;;;4964884;28;20043;-75
2022/07/04 17:34:35;;;;;;;2.08;0.63;;;35.20;44.40;;;;;;4964322;29;20027;-75
2022/07/04 17:37:01;;;;;;;1.92;0.52;;;34.30;45.00;;;;;;4965595;28;20027;-75
2022/07/04 17:39:27;;;;;;;1.98;0.60;;;33.70;45.70;;;;;;4965237;28;20031;-75
2022/07/04 17:41:53;;;;;;;3.22;0.95;;;33.30;46.80;;;;;;4964323;29;20054;-74
2022/07/04 17:44:21;;;;;;;4.68;0.77;;;33.20;46.10;;;;;;4964879;28;20035;-75
2022/07/04 17:46:48;;;;;;;3.70;1.10;;;32.80;46.50;;;;;;4964704;28;20043;-75
2022/07/04 17:49:15;;;;;;;3.05;1.35;;;32.10;47.10;;;;;;4964761;28;20051;-74
2022/07/04 17:51:41;;;;;;;2.45;1.30;;;31.60;48.10;;;;;;4964873;28;20065;-74
2022/07/04 17:54:10;;;;;;;3.30;1.55;;;31.00;48.60;;;;;;4965272;28;20067;-76
2022/07/04 17:56:36;;;;;;;5.18;1.60;;;30.40;49.10;;;;;;4964043;29;20019;-74
2022/07/04 17:59:02;;;;;;;3.10;1.95;;;30.00;49.40;;;;;;4965306;29;20063;-75
2022/07/04 18:01:28;;;;;;;2.35;1.23;;;29.60;50.50;;;;;;4963979;28;20047;-78
2022/07/04 18:03:55;;;;;;;3.78;0.98;;;29.30;50.30;;;;;;4965291;29;20082;-76
2022/07/04 18:06:22;;;;;;;3.33;1.15;;;29.10;49.90;;;;;;4964841;28;20031;-74
2022/07/04 18:08:48;;;;;;;2.53;0.63;;;28.90;49.90;;;;;;4964994;28;20023;-75
2022/07/04 18:11:14;;;;;;;1.48;0.50;;;28.80;50.10;;;;;;4971413;28;20035;-77
2022/07/04 18:13:40;;;;;;;2.60;0.75;;;28.70;50.60;;;;;;4972161;28;20060;-75
2022/07/04 18:16:06;;;;;;;3.30;0.60;;;28.60;51.40;;;;;;4970498;28;20062;-72